< < Back
Terminal Aerodrome Forecast


Current Version              Previous Versions:   1  2  3  4  5  6  7  8  9  

Terminal Aerodrome Forecast

911
FTUS42 KFFC 250746 AAA
TAFCSG
TAF AMD
KCSG 250746Z 2508/2606 34004KT P6SM SCT050 BKN100
     FM251600 36007KT P6SM VCSH SCT035 BKN070
     FM252200 35006KT P6SM -SHRA SCT030 OVC050
     FM260200 33008KT 5SM -SHRA BR SCT012 OVC025=

Latest METAR

025
SAUS70 KWBC 252300
MTRCSG
METAR KCSG 252251Z 18003KT 10SM BKN100 12/03 A3006 RMK AO2 SLP176
T01170033


USA.gov is the U.S. government's official web portal to all federal, state and local government web resources and services.